createdAt,value
2019-03-10T04:02:04.650Z,90.60
2019-03-10T04:07:55.829Z,90.80
2019-03-10T04:10:29.481Z,90.50
2019-03-10T04:13:01.015Z,90.60
2019-03-10T04:30:55.680Z,90.80
2019-03-10T04:33:40.382Z,90.90
2019-03-10T04:58:05.868Z,91.20
2019-03-10T05:00:43.195Z,91.30
2019-03-10T05:03:33.992Z,91.40
2019-03-10T05:06:12.928Z,91.20
2019-03-10T05:08:44.307Z,91.50
2019-03-10T05:11:16.284Z,91.40
2019-03-10T05:13:46.862Z,91.30
2019-03-10T05:16:17.043Z,91.40
2019-03-10T05:18:47.226Z,91.40
2019-03-10T05:21:16.893Z,91.30
2019-03-10T05:23:46.706Z,91.60
2019-03-10T05:26:16.231Z,91.50
2019-03-10T05:28:47.037Z,91.60
2019-03-10T05:31:17.628Z,91.80
2019-03-10T05:33:47.944Z,92.10
2019-03-10T05:36:17.609Z,91.90
2019-03-10T05:38:47.165Z,91.80
2019-03-10T05:41:18.522Z,91.90
2019-03-10T05:43:49.864Z,91.90
2019-03-10T05:46:21.917Z,91.80
2019-03-10T05:51:52.931Z,92.10
2019-03-10T05:54:25.218Z,92.00
2019-03-10T05:57:11.573Z,92.20
2019-03-10T06:06:28.880Z,92.70
2019-03-10T06:15:30.433Z,92.60
2019-03-10T06:18:16.037Z,92.60
2019-03-10T06:34:06.966Z,93.60
2019-03-10T06:37:12.382Z,92.70
2019-03-10T06:40:06.445Z,92.80
2019-03-10T06:51:35.873Z,93.00
2019-03-10T06:54:14.388Z,93.20
2019-03-10T07:02:43.362Z,93.50
2019-03-10T07:05:16.451Z,93.60
2019-03-10T07:07:53.748Z,93.90
2019-03-10T07:31:38.770Z,94.10
2019-03-10T07:47:04.433Z,94.40
2019-03-10T07:49:37.704Z,94.20
2019-03-10T07:55:11.465Z,94.50
2019-03-10T08:03:45.194Z,95.70
2019-03-10T08:06:26.113Z,95.60
2019-03-10T08:09:13.190Z,95.90
2019-03-10T08:15:04.444Z,95.10
2019-03-10T08:38:35.555Z,95.00
2019-03-10T08:44:25.955Z,95.00
2019-03-10T08:47:15.220Z,94.80
2019-03-10T08:59:17.354Z,95.20
2019-03-10T09:22:05.744Z,96.50
2019-03-10T09:24:59.680Z,98.60
2019-03-10T09:27:40.753Z,97.70
2019-03-10T09:43:13.257Z,99.10
2019-03-10T09:45:44.355Z,99.90
2019-03-10T09:48:32.416Z,99.60
2019-03-10T09:51:04.072Z,98.90
2019-03-10T09:53:51.487Z,98.10
2019-03-10T09:56:21.907Z,98.40
2019-03-10T09:58:52.938Z,97.80
2019-03-10T10:01:26.757Z,97.00
2019-03-10T10:04:03.237Z,97.20
2019-03-10T10:06:36.837Z,96.60
2019-03-10T10:09:16.660Z,96.70
2019-03-10T10:11:53.785Z,96.60
2019-03-10T10:14:27.300Z,96.40
2019-03-10T10:17:01.094Z,96.10
2019-03-10T10:19:32.149Z,95.90
2019-03-10T10:22:19.768Z,95.50
2019-03-10T10:25:06.105Z,95.40
2019-03-10T11:48:42.800Z,91.70
2019-03-10T11:51:40.500Z,92.40
2019-03-10T11:54:11.647Z,93.00
2019-03-10T11:56:44.166Z,92.80
2019-03-10T11:59:28.263Z,93.20
2019-03-10T12:02:15.225Z,93.40
2019-03-10T12:04:46.327Z,93.70
2019-03-10T12:07:36.245Z,93.60
2019-03-10T12:10:15.928Z,94.10
2019-03-10T12:36:44.257Z,86.00
2019-03-10T12:45:42.805Z,82.80
2019-03-10T12:48:12.242Z,83.60
2019-03-10T12:50:41.988Z,82.70
2019-03-10T12:53:11.362Z,81.90
2019-03-10T12:55:40.836Z,82.80
2019-03-10T12:58:10.216Z,82.60
2019-03-10T13:00:39.785Z,81.00
2019-03-10T13:03:09.271Z,82.20
2019-03-10T13:05:38.595Z,81.60
2019-03-10T13:08:07.959Z,81.30
2019-03-10T13:10:37.465Z,80.10
2019-03-10T13:13:06.835Z,82.00
2019-03-10T13:15:36.603Z,80.40
2019-03-10T13:18:06.094Z,80.60
2019-03-10T13:20:35.480Z,80.50
2019-03-10T13:23:04.995Z,81.80
2019-03-10T13:25:36.117Z,80.90
2019-03-10T13:28:05.477Z,80.80
2019-03-10T13:30:34.933Z,82.20
2019-03-10T13:33:04.491Z,82.00
2019-03-10T13:35:35.455Z,82.20
2019-03-10T13:38:05.513Z,81.90
2019-03-10T13:40:35.058Z,82.90
2019-03-10T13:43:11.078Z,82.60
2019-03-10T13:45:42.140Z,83.10
2019-03-10T13:48:11.637Z,83.50
2019-03-10T13:50:41.189Z,83.50
2019-03-10T13:53:10.481Z,83.80
2019-03-10T13:55:39.845Z,84.20
2019-03-10T13:58:09.402Z,84.50
2019-03-10T14:00:38.853Z,85.00
2019-03-10T14:03:08.264Z,85.80
2019-03-10T14:05:37.654Z,86.60
2019-03-10T14:08:08.076Z,85.70
2019-03-10T14:10:37.471Z,85.50
2019-03-10T14:13:06.778Z,86.20
2019-03-10T14:15:36.102Z,85.90
2019-03-10T14:18:05.552Z,86.80
2019-03-10T14:20:35.063Z,87.10
2019-03-10T14:23:04.568Z,87.40
2019-03-10T14:25:33.960Z,87.40
2019-03-10T14:28:03.435Z,87.60
2019-03-10T14:30:33.013Z,88.10
2019-03-10T14:33:02.400Z,88.80
2019-03-10T14:35:32.376Z,90.20
2019-03-10T14:38:01.877Z,90.40
2019-03-10T14:40:31.388Z,90.40
2019-03-10T14:43:00.715Z,90.40
2019-03-10T14:45:30.051Z,90.30
2019-03-10T14:47:59.510Z,90.40
2019-03-10T14:50:28.820Z,90.30
2019-03-10T14:52:58.353Z,90.50
2019-03-10T14:55:27.767Z,90.60
2019-03-10T14:57:57.249Z,90.50
2019-03-10T15:00:29.172Z,90.70
2019-03-10T15:02:58.735Z,90.80
2019-03-10T15:05:28.112Z,90.80
2019-03-10T15:07:57.453Z,90.90
2019-03-10T15:10:26.957Z,91.20
2019-03-10T15:12:56.401Z,91.10
2019-03-10T15:15:25.810Z,90.80
2019-03-10T15:17:55.900Z,90.90
2019-03-10T15:20:26.864Z,91.10
2019-03-10T15:22:56.342Z,90.90
2019-03-10T15:25:26.918Z,91.40
2019-03-10T15:27:56.463Z,91.10
2019-03-10T15:30:27.075Z,91.20
2019-03-10T15:32:56.689Z,91.30
2019-03-10T15:35:26.202Z,91.20
2019-03-10T15:37:55.636Z,91.40
2019-03-10T15:40:25.081Z,91.40
2019-03-10T15:42:54.626Z,91.40
2019-03-10T15:45:24.093Z,91.60
2019-03-10T15:47:53.492Z,91.60
2019-03-10T15:50:30.093Z,91.80
2019-03-10T15:53:01.753Z,91.70
2019-03-10T15:55:31.290Z,91.70
2019-03-10T15:58:00.713Z,91.80
2019-03-10T16:00:30.205Z,91.70
2019-03-10T16:02:59.632Z,91.60
2019-03-10T16:05:29.082Z,91.60
2019-03-10T16:07:58.577Z,91.40
2019-03-10T16:10:27.968Z,91.40
2019-03-10T16:12:57.370Z,91.50
2019-03-10T16:15:31.079Z,91.30
2019-03-10T16:18:00.541Z,91.00
2019-03-10T16:20:29.967Z,90.70
2019-03-10T16:22:59.501Z,90.40
2019-03-10T16:25:29.365Z,90.10
2019-03-10T16:27:58.892Z,90.20
2019-03-10T16:30:29.435Z,90.20
2019-03-10T16:33:00.546Z,90.00
2019-03-10T16:35:29.966Z,90.10
2019-03-10T16:37:59.495Z,88.70
2019-03-10T16:40:28.900Z,88.90
2019-03-10T16:42:59.971Z,88.20
2019-03-10T16:45:31.426Z,88.40
2019-03-10T16:58:02.474Z,86.60
2019-03-10T17:06:55.982Z,87.10
2019-03-10T17:12:24.257Z,86.70
2019-03-10T17:17:56.419Z,84.30
2019-03-10T17:20:34.069Z,85.30
2019-03-10T17:29:38.285Z,82.50
2019-03-10T17:32:37.640Z,81.50
2019-03-10T17:38:35.340Z,83.50
2019-03-10T17:41:18.400Z,83.80
2019-03-10T18:07:51.628Z,85.50
2019-03-10T18:10:46.084Z,85.40
2019-03-10T18:13:46.470Z,85.20
2019-03-10T18:16:21.285Z,84.70
2019-03-10T18:19:07.252Z,85.40
2019-03-10T18:31:14.772Z,85.90
2019-03-10T18:33:44.293Z,86.40
2019-03-10T18:36:14.761Z,87.10
2019-03-10T18:38:45.042Z,88.10
2019-03-10T18:41:14.356Z,88.80
2019-03-10T18:43:44.000Z,89.00
2019-03-10T18:46:13.285Z,89.10
2019-03-10T18:48:42.730Z,90.00
2019-03-10T18:51:12.155Z,90.00
2019-03-10T18:53:41.533Z,90.10
2019-03-10T18:56:10.976Z,90.10
2019-03-10T18:58:40.412Z,90.30
2019-03-10T19:01:09.873Z,90.40
2019-03-10T19:03:39.252Z,90.50
2019-03-10T19:06:08.894Z,90.40
2019-03-10T19:08:38.295Z,90.70
2019-03-10T19:11:09.344Z,90.60
2019-03-10T19:13:38.942Z,90.60
2019-03-10T19:16:08.609Z,90.80
2019-03-10T19:18:40.395Z,90.50
2019-03-10T19:21:10.986Z,90.60
2019-03-10T19:23:41.720Z,90.50
2019-03-10T19:26:12.403Z,90.60
2019-03-10T19:28:42.903Z,90.60
2019-03-10T19:31:34.961Z,90.60
2019-03-10T19:34:12.769Z,90.50
2019-03-10T19:36:42.342Z,90.40
2019-03-10T19:45:48.062Z,90.20
2019-03-10T19:51:29.853Z,89.80
2019-03-10T19:57:01.666Z,90.00
2019-03-10T19:59:52.708Z,90.00
2019-03-10T20:02:50.903Z,90.00
2019-03-10T20:11:14.382Z,89.90
2019-03-10T20:38:47.011Z,90.70
2019-03-10T20:41:37.232Z,90.70
2019-03-10T20:44:20.237Z,90.70
2019-03-10T20:47:29.898Z,91.10
2019-03-10T20:56:18.355Z,90.80
2019-03-10T21:58:55.418Z,87.70
2019-03-10T22:11:19.906Z,87.40
2019-03-10T22:13:52.040Z,87.70
2019-03-10T22:16:33.856Z,87.40
2019-03-10T22:19:06.103Z,87.40
2019-03-10T22:30:40.215Z,88.70
2019-03-10T22:33:32.670Z,88.50
2019-03-10T22:36:08.852Z,88.60
2019-03-10T22:38:43.048Z,88.70
2019-03-10T22:41:12.696Z,88.80
2019-03-10T22:43:43.344Z,88.80
2019-03-10T22:46:17.995Z,88.90
2019-03-10T22:49:16.077Z,89.10
2019-03-10T22:57:56.483Z,89.30
2019-03-10T23:00:54.827Z,89.30
2019-03-10T23:09:47.247Z,85.40
2019-03-10T23:27:08.760Z,83.80
2019-03-10T23:29:58.570Z,84.40
2019-03-10T23:51:20.701Z,84.10
